sensor_id;sensor_type;location;lat;lon;timestamp;pressure;altitude;pressure_sealevel;temperature;humidity
45369;BME280;51342;55.250;37.668;2023-07-20T00:01:30;98292.13;;;11.59;74.16
45369;BME280;51342;55.250;37.668;2023-07-20T00:04:02;98292.97;;;11.58;74.38
45369;BME280;51342;55.250;37.668;2023-07-20T00:06:33;98297.28;;;11.58;74.52
45369;BME280;51342;55.250;37.668;2023-07-20T00:09:04;98293.03;;;11.60;74.49
45369;BME280;51342;55.250;37.668;2023-07-20T00:11:37;98297.28;;;11.58;74.76
45369;BME280;51342;55.250;37.668;2023-07-20T00:14:09;98297.22;;;11.56;75.06
45369;BME280;51342;55.250;37.668;2023-07-20T00:16:40;98309.34;;;11.57;74.80
45369;BME280;51342;55.250;37.668;2023-07-20T00:19:12;98299.03;;;11.59;74.91
45369;BME280;51342;55.250;37.668;2023-07-20T00:21:44;98291.25;;;11.59;74.88
45369;BME280;51342;55.250;37.668;2023-07-20T00:24:16;98304.25;;;11.60;75.40
45369;BME280;51342;55.250;37.668;2023-07-20T00:26:48;98285.97;;;11.56;75.37
45369;BME280;51342;55.250;37.668;2023-07-20T00:29:20;98311.13;;;11.58;75.58
45369;BME280;51342;55.250;37.668;2023-07-20T00:31:51;98300.69;;;11.57;75.73
45369;BME280;51342;55.250;37.668;2023-07-20T00:34:23;98296.25;;;11.53;75.45
45369;BME280;51342;55.250;37.668;2023-07-20T00:36:54;98292.03;;;11.56;75.37
45369;BME280;51342;55.250;37.668;2023-07-20T00:39:27;98299.00;;;11.57;76.09
45369;BME280;51342;55.250;37.668;2023-07-20T00:41:59;98290.22;;;11.52;75.72
45369;BME280;51342;55.250;37.668;2023-07-20T00:44:31;98302.31;;;11.53;76.02
45369;BME280;51342;55.250;37.668;2023-07-20T00:47:05;98288.34;;;11.48;75.90
45369;BME280;51342;55.250;37.668;2023-07-20T00:49:38;98296.88;;;11.46;75.72
45369;BME280;51342;55.250;37.668;2023-07-20T00:52:11;98302.13;;;11.47;75.33
45369;BME280;51342;55.250;37.668;2023-07-20T00:54:47;98297.56;;;11.40;75.77
45369;BME280;51342;55.250;37.668;2023-07-20T00:57:20;98297.44;;;11.35;75.68
45369;BME280;51342;55.250;37.668;2023-07-20T00:59:51;98296.56;;;11.35;75.48
45369;BME280;51342;55.250;37.668;2023-07-20T01:02:25;98304.25;;;11.33;75.86
45369;BME280;51342;55.250;37.668;2023-07-20T01:04:57;98302.47;;;11.31;75.79
45369;BME280;51342;55.250;37.668;2023-07-20T01:07:35;98298.81;;;11.24;75.89
45369;BME280;51342;55.250;37.668;2023-07-20T01:10:39;98297.75;;;11.18;75.58
45369;BME280;51342;55.250;37.668;2023-07-20T01:13:11;98307.25;;;11.19;75.79
45369;BME280;51342;55.250;37.668;2023-07-20T01:16:12;98312.25;;;11.12;75.81
45369;BME280;51342;55.250;37.668;2023-07-20T01:18:43;98314.19;;;11.20;75.68
45369;BME280;51342;55.250;37.668;2023-07-20T01:21:27;98313.28;;;11.18;75.30
45369;BME280;51342;55.250;37.668;2023-07-20T01:24:30;98317.66;;;11.20;75.35
45369;BME280;51342;55.250;37.668;2023-07-20T01:27:19;98323.47;;;11.13;75.11
45369;BME280;51342;55.250;37.668;2023-07-20T01:32:50;98325.94;;;11.10;75.59
45369;BME280;51342;55.250;37.668;2023-07-20T01:35:29;98320.72;;;11.08;75.23
45369;BME280;51342;55.250;37.668;2023-07-20T01:42:05;98327.50;;;11.05;75.73
45369;BME280;51342;55.250;37.668;2023-07-20T01:44:38;98327.50;;;11.05;75.57
45369;BME280;51342;55.250;37.668;2023-07-20T01:47:09;98324.88;;;11.03;75.76
45369;BME280;51342;55.250;37.668;2023-07-20T01:49:40;98325.88;;;11.07;75.86
45369;BME280;51342;55.250;37.668;2023-07-20T01:52:12;98328.44;;;11.07;75.45
45369;BME280;51342;55.250;37.668;2023-07-20T01:54:43;98332.69;;;11.05;75.64
45369;BME280;51342;55.250;37.668;2023-07-20T01:57:15;98329.25;;;11.06;75.87
45369;BME280;51342;55.250;37.668;2023-07-20T01:59:46;98326.66;;;11.06;76.07
45369;BME280;51342;55.250;37.668;2023-07-20T02:02:18;98324.16;;;11.07;75.97
45369;BME280;51342;55.250;37.668;2023-07-20T02:04:50;98334.75;;;11.15;76.28
45369;BME280;51342;55.250;37.668;2023-07-20T02:07:21;98337.50;;;11.20;76.39
45369;BME280;51342;55.250;37.668;2023-07-20T02:09:53;98321.31;;;11.27;76.72
45369;BME280;51342;55.250;37.668;2023-07-20T02:12:24;98333.94;;;11.43;77.25
45369;BME280;51342;55.250;37.668;2023-07-20T02:14:56;98334.47;;;11.60;76.81
45369;BME280;51342;55.250;37.668;2023-07-20T02:17:27;98329.84;;;11.78;77.23
45369;BME280;51342;55.250;37.668;2023-07-20T02:19:58;98334.91;;;12.02;77.01
45369;BME280;51342;55.250;37.668;2023-07-20T02:22:30;98331.19;;;12.23;76.22
45369;BME280;51342;55.250;37.668;2023-07-20T02:25:01;98332.72;;;12.46;75.94
45369;BME280;51342;55.250;37.668;2023-07-20T02:27:35;98341.22;;;12.72;75.70
45369;BME280;51342;55.250;37.668;2023-07-20T02:30:07;98328.91;;;12.98;75.38
45369;BME280;51342;55.250;37.668;2023-07-20T02:32:40;98326.28;;;13.30;75.01
45369;BME280;51342;55.250;37.668;2023-07-20T02:35:11;98323.50;;;13.58;74.45
45369;BME280;51342;55.250;37.668;2023-07-20T02:37:44;98317.31;;;13.91;73.50
45369;BME280;51342;55.250;37.668;2023-07-20T02:40:15;98325.78;;;14.21;72.74
45369;BME280;51342;55.250;37.668;2023-07-20T02:42:47;98323.78;;;14.50;72.01
45369;BME280;51342;55.250;37.668;2023-07-20T02:45:18;98334.81;;;14.81;71.48
45369;BME280;51342;55.250;37.668;2023-07-20T02:47:49;98327.44;;;15.08;70.64
45369;BME280;51342;55.250;37.668;2023-07-20T02:50:22;98331.44;;;15.38;69.99
45369;BME280;51342;55.250;37.668;2023-07-20T02:52:54;98325.81;;;15.65;69.06
45369;BME280;51342;55.250;37.668;2023-07-20T02:55:25;98327.91;;;15.89;68.62
45369;BME280;51342;55.250;37.668;2023-07-20T02:57:57;98334.41;;;16.20;67.67
45369;BME280;51342;55.250;37.668;2023-07-20T03:00:28;98332.09;;;16.44;66.67
45369;BME280;51342;55.250;37.668;2023-07-20T03:02:59;98333.28;;;16.68;66.10
45369;BME280;51342;55.250;37.668;2023-07-20T03:05:31;98334.38;;;16.88;65.61
45369;BME280;51342;55.250;37.668;2023-07-20T03:08:02;98331.97;;;17.10;64.96
45369;BME280;51342;55.250;37.668;2023-07-20T03:10:40;98326.94;;;17.33;63.88
45369;BME280;51342;55.250;37.668;2023-07-20T03:13:12;98330.56;;;17.48;63.58
45369;BME280;51342;55.250;37.668;2023-07-20T03:15:45;98325.47;;;17.68;62.86
45369;BME280;51342;55.250;37.668;2023-07-20T03:18:16;98325.63;;;17.84;62.56
45369;BME280;51342;55.250;37.668;2023-07-20T03:20:48;98331.78;;;17.96;62.02
45369;BME280;51342;55.250;37.668;2023-07-20T03:23:19;98329.25;;;18.07;61.52
45369;BME280;51342;55.250;37.668;2023-07-20T03:25:51;98331.00;;;18.14;61.16
45369;BME280;51342;55.250;37.668;2023-07-20T03:28:26;98329.31;;;18.22;60.72
45369;BME280;51342;55.250;37.668;2023-07-20T03:30:58;98332.84;;;18.27;60.65
45369;BME280;51342;55.250;37.668;2023-07-20T03:33:31;98337.22;;;18.30;60.85
45369;BME280;51342;55.250;37.668;2023-07-20T03:36:04;98334.63;;;18.36;60.91
45369;BME280;51342;55.250;37.668;2023-07-20T03:38:36;98345.13;;;18.48;60.25
45369;BME280;51342;55.250;37.668;2023-07-20T03:41:39;98336.44;;;18.49;60.97
45369;BME280;51342;55.250;37.668;2023-07-20T03:44:11;98344.31;;;18.57;60.74
45369;BME280;51342;55.250;37.668;2023-07-20T03:46:43;98342.56;;;18.59;59.89
45369;BME280;51342;55.250;37.668;2023-07-20T03:49:15;98339.94;;;18.58;60.63
45369;BME280;51342;55.250;37.668;2023-07-20T03:51:46;98341.75;;;18.71;60.04
45369;BME280;51342;55.250;37.668;2023-07-20T03:54:18;98340.06;;;18.80;60.04
45369;BME280;51342;55.250;37.668;2023-07-20T03:56:50;98337.44;;;18.85;59.22
45369;BME280;51342;55.250;37.668;2023-07-20T03:59:21;98336.59;;;18.92;59.63
45369;BME280;51342;55.250;37.668;2023-07-20T04:01:53;98335.72;;;18.99;59.63
45369;BME280;51342;55.250;37.668;2023-07-20T04:04:24;98330.47;;;19.05;59.20
45369;BME280;51342;55.250;37.668;2023-07-20T04:06:55;98334.00;;;19.15;58.84
45369;BME280;51342;55.250;37.668;2023-07-20T04:09:27;98333.13;;;19.22;58.59
45369;BME280;51342;55.250;37.668;2023-07-20T04:11:59;98324.41;;;19.25;58.44
45369;BME280;51342;55.250;37.668;2023-07-20T04:14:31;98325.25;;;19.39;58.75
45369;BME280;51342;55.250;37.668;2023-07-20T04:17:02;98322.66;;;19.50;58.75
45369;BME280;51342;55.250;37.668;2023-07-20T04:19:34;98330.53;;;19.54;58.47
45369;BME280;51342;55.250;37.668;2023-07-20T04:22:06;98331.41;;;19.66;57.57
45369;BME280;51342;55.250;37.668;2023-07-20T04:24:37;98329.69;;;19.65;58.33
45369;BME280;51342;55.250;37.668;2023-07-20T04:27:09;98328.78;;;19.66;57.61
45369;BME280;51342;55.250;37.668;2023-07-20T04:29:40;98335.78;;;19.71;57.84
45369;BME280;51342;55.250;37.668;2023-07-20T04:32:12;98342.78;;;19.81;58.36
45369;BME280;51342;55.250;37.668;2023-07-20T04:34:43;98344.50;;;19.93;57.54
45369;BME280;51342;55.250;37.668;2023-07-20T04:37:15;98347.13;;;19.99;57.06
45369;BME280;51342;55.250;37.668;2023-07-20T04:39:46;98336.63;;;20.04;57.07
45369;BME280;51342;55.250;37.668;2023-07-20T04:42:18;98350.59;;;20.17;56.82
45369;BME280;51342;55.250;37.668;2023-07-20T04:44:51;98347.94;;;20.23;56.65
45369;BME280;51342;55.250;37.668;2023-07-20T04:47:24;98342.66;;;20.32;57.09
45369;BME280;51342;55.250;37.668;2023-07-20T04:49:56;98340.88;;;20.43;56.58
45369;BME280;51342;55.250;37.668;2023-07-20T04:52:27;98348.75;;;20.54;56.85
45369;BME280;51342;55.250;37.668;2023-07-20T04:54:59;98344.31;;;20.62;56.18
45369;BME280;51342;55.250;37.668;2023-07-20T04:57:33;98335.53;;;20.71;56.25
45369;BME280;51342;55.250;37.668;2023-07-20T05:00:05;98352.97;;;20.85;55.69
45369;BME280;51342;55.250;37.668;2023-07-20T05:02:37;98342.38;;;20.96;55.61
45369;BME280;51342;55.250;37.668;2023-07-20T05:05:09;98341.47;;;21.05;56.32
45369;BME280;51342;55.250;37.668;2023-07-20T05:07:41;98344.03;;;21.12;55.73
45369;BME280;51342;55.250;37.668;2023-07-20T05:10:12;98351.00;;;21.23;55.44
45369;BME280;51342;55.250;37.668;2023-07-20T05:12:46;98350.06;;;21.33;54.04
45369;BME280;51342;55.250;37.668;2023-07-20T05:15:18;98343.03;;;21.36;55.20
45369;BME280;51342;55.250;37.668;2023-07-20T05:17:50;98340.31;;;21.44;56.03
45369;BME280;51342;55.250;37.668;2023-07-20T05:20:21;98343.75;;;21.55;54.62
45369;BME280;51342;55.250;37.668;2023-07-20T05:22:52;98335.81;;;21.61;54.97
45369;BME280;51342;55.250;37.668;2023-07-20T05:25:24;98344.53;;;21.68;55.39
45369;BME280;51342;55.250;37.668;2023-07-20T05:27:55;98337.41;;;21.78;54.57
45369;BME280;51342;55.250;37.668;2023-07-20T05:30:27;98350.50;;;21.84;54.25
45369;BME280;51342;55.250;37.668;2023-07-20T05:33:00;98349.66;;;21.85;55.03
45369;BME280;51342;55.250;37.668;2023-07-20T05:35:31;98353.09;;;21.88;54.36
45369;BME280;51342;55.250;37.668;2023-07-20T05:38:03;98347.78;;;21.96;54.24
45369;BME280;51342;55.250;37.668;2023-07-20T05:44:18;98350.19;;;22.17;53.36
45369;BME280;51342;55.250;37.668;2023-07-20T05:46:49;98349.22;;;22.28;52.77
45369;BME280;51342;55.250;37.668;2023-07-20T05:49:20;98351.91;;;22.25;51.46
45369;BME280;51342;55.250;37.668;2023-07-20T05:51:52;98345.75;;;22.22;51.58
45369;BME280;51342;55.250;37.668;2023-07-20T05:54:26;98344.81;;;22.28;52.08
45369;BME280;51342;55.250;37.668;2023-07-20T05:56:58;98347.44;;;22.31;52.44
45369;BME280;51342;55.250;37.668;2023-07-20T05:59:29;98344.66;;;22.40;51.66
45369;BME280;51342;55.250;37.668;2023-07-20T06:02:01;98342.91;;;22.42;50.76
45369;BME280;51342;55.250;37.668;2023-07-20T06:07:03;98346.38;;;22.47;51.20
45369;BME280;51342;55.250;37.668;2023-07-20T06:09:34;98345.41;;;22.52;51.48
45369;BME280;51342;55.250;37.668;2023-07-20T06:12:07;98350.59;;;22.61;51.37
45369;BME280;51342;55.250;37.668;2023-07-20T06:14:38;98355.00;;;22.59;51.41
45369;BME280;51342;55.250;37.668;2023-07-20T06:17:09;98351.44;;;22.61;51.79
45369;BME280;51342;55.250;37.668;2023-07-20T06:19:41;98357.53;;;22.66;51.17
45369;BME280;51342;55.250;37.668;2023-07-20T06:22:12;98358.31;;;22.74;52.18
45369;BME280;51342;55.250;37.668;2023-07-20T06:24:43;98361.81;;;22.77;50.40
45369;BME280;51342;55.250;37.668;2023-07-20T06:27:15;98353.84;;;22.80;50.77
45369;BME280;51342;55.250;37.668;2023-07-20T06:29:46;98352.97;;;22.79;50.21
45369;BME280;51342;55.250;37.668;2023-07-20T06:32:18;98364.34;;;22.84;51.13
45369;BME280;51342;55.250;37.668;2023-07-20T06:34:49;98350.31;;;22.82;49.14
45369;BME280;51342;55.250;37.668;2023-07-20T06:37:20;98353.84;;;22.81;49.73
45369;BME280;51342;55.250;37.668;2023-07-20T06:39:51;98354.66;;;22.86;50.11
45369;BME280;51342;55.250;37.668;2023-07-20T06:42:23;98350.19;;;22.93;49.71
45369;BME280;51342;55.250;37.668;2023-07-20T06:44:55;98350.19;;;22.93;49.89
45369;BME280;51342;55.250;37.668;2023-07-20T06:47:26;98352.78;;;22.96;48.23
45369;BME280;51342;55.250;37.668;2023-07-20T06:49:57;98353.63;;;22.99;48.60
45369;BME280;51342;55.250;37.668;2023-07-20T06:52:29;98353.50;;;23.07;48.76
45369;BME280;51342;55.250;37.668;2023-07-20T06:55:00;98353.44;;;23.12;49.01
45369;BME280;51342;55.250;37.668;2023-07-20T06:57:32;98349.03;;;23.12;48.02
45369;BME280;51342;55.250;37.668;2023-07-20T07:00:03;98350.69;;;23.19;48.34
45369;BME280;51342;55.250;37.668;2023-07-20T07:02:35;98349.78;;;23.22;48.67
45369;BME280;51342;55.250;37.668;2023-07-20T07:05:07;98352.31;;;23.28;49.12
45369;BME280;51342;55.250;37.668;2023-07-20T07:07:38;98359.22;;;23.37;49.28
45369;BME280;51342;55.250;37.668;2023-07-20T07:10:09;98360.00;;;23.43;49.04
45369;BME280;51342;55.250;37.668;2023-07-20T07:12:41;98348.53;;;23.46;48.07
45369;BME280;51342;55.250;37.668;2023-07-20T07:15:12;98359.13;;;23.44;47.33
45369;BME280;51342;55.250;37.668;2023-07-20T07:17:43;98356.41;;;23.47;48.26
45369;BME280;51342;55.250;37.668;2023-07-20T07:20:15;98363.38;;;23.51;47.31
45369;BME280;51342;55.250;37.668;2023-07-20T07:22:47;98364.31;;;23.49;46.83
45369;BME280;51342;55.250;37.668;2023-07-20T07:25:18;98357.28;;;23.48;47.91
45369;BME280;51342;55.250;37.668;2023-07-20T07:27:51;98362.50;;;23.52;48.48
45369;BME280;51342;55.250;37.668;2023-07-20T07:30:23;98358.03;;;23.56;48.21
45369;BME280;51342;55.250;37.668;2023-07-20T07:32:54;98363.28;;;23.58;47.27
45369;BME280;51342;55.250;37.668;2023-07-20T07:35:26;98363.25;;;23.59;47.75
45369;BME280;51342;55.250;37.668;2023-07-20T07:37:57;98356.16;;;23.64;47.50
45369;BME280;51342;55.250;37.668;2023-07-20T07:40:28;98359.69;;;23.65;46.99
45369;BME280;51342;55.250;37.668;2023-07-20T07:43:24;98360.53;;;23.65;46.83
45369;BME280;51342;55.250;37.668;2023-07-20T07:45:56;98355.22;;;23.68;47.09
45369;BME280;51342;55.250;37.668;2023-07-20T07:48:28;98363.03;;;23.74;47.50
45369;BME280;51342;55.250;37.668;2023-07-20T07:50:59;98371.81;;;23.76;46.87
45369;BME280;51342;55.250;37.668;2023-07-20T07:53:31;98361.19;;;23.79;46.33
45369;BME280;51342;55.250;37.668;2023-07-20T07:56:07;98355.94;;;23.76;45.56
45369;BME280;51342;55.250;37.668;2023-07-20T07:58:38;98364.78;;;23.77;45.92
45369;BME280;51342;55.250;37.668;2023-07-20T08:01:10;98365.53;;;23.82;46.21
45369;BME280;51342;55.250;37.668;2023-07-20T08:03:41;98360.16;;;23.90;46.17
45369;BME280;51342;55.250;37.668;2023-07-20T08:06:13;98361.81;;;23.94;46.16
45369;BME280;51342;55.250;37.668;2023-07-20T08:08:45;98360.88;;;23.98;45.93
45369;BME280;51342;55.250;37.668;2023-07-20T08:11:16;98363.47;;;24.01;45.98
45369;BME280;51342;55.250;37.668;2023-07-20T08:13:49;98371.25;;;24.09;46.50
45369;BME280;51342;55.250;37.668;2023-07-20T08:16:20;98357.16;;;24.08;45.82
45369;BME280;51342;55.250;37.668;2023-07-20T08:18:52;98366.03;;;24.04;46.13
45369;BME280;51342;55.250;37.668;2023-07-20T08:21:23;98371.31;;;24.05;46.54
45369;BME280;51342;55.250;37.668;2023-07-20T08:23:55;98371.44;;;23.98;45.97
45369;BME280;51342;55.250;37.668;2023-07-20T08:26:26;98368.97;;;23.87;45.78
45369;BME280;51342;55.250;37.668;2023-07-20T08:28:58;98362.97;;;23.79;45.92
45369;BME280;51342;55.250;37.668;2023-07-20T08:31:29;98365.81;;;23.65;45.92
45369;BME280;51342;55.250;37.668;2023-07-20T08:34:01;98367.69;;;23.57;45.93
45369;BME280;51342;55.250;37.668;2023-07-20T08:36:32;98381.06;;;23.46;46.15
45369;BME280;51342;55.250;37.668;2023-07-20T08:39:04;98368.84;;;23.41;46.45
45369;BME280;51342;55.250;37.668;2023-07-20T08:41:35;98368.69;;;23.50;46.75
45369;BME280;51342;55.250;37.668;2023-07-20T08:44:08;98365.78;;;23.68;47.50
45369;BME280;51342;55.250;37.668;2023-07-20T08:46:40;98370.06;;;23.75;46.15
45369;BME280;51342;55.250;37.668;2023-07-20T08:49:12;98377.25;;;23.67;46.52
45369;BME280;51342;55.250;37.668;2023-07-20T08:51:46;98372.94;;;23.60;46.31
45369;BME280;51342;55.250;37.668;2023-07-20T08:54:18;98382.66;;;23.57;46.43
45369;BME280;51342;55.250;37.668;2023-07-20T08:56:49;98382.81;;;23.49;45.92
45369;BME280;51342;55.250;37.668;2023-07-20T08:59:23;98379.34;;;23.44;46.12
45369;BME280;51342;55.250;37.668;2023-07-20T09:01:59;98370.38;;;23.56;46.29
45369;BME280;51342;55.250;37.668;2023-07-20T09:04:31;98372.69;;;23.75;46.52
45369;BME280;51342;55.250;37.668;2023-07-20T09:07:03;98373.69;;;23.70;47.18
45369;BME280;51342;55.250;37.668;2023-07-20T09:09:39;98380.19;;;23.46;46.31
45369;BME280;51342;55.250;37.668;2023-07-20T09:12:15;98375.72;;;22.92;47.55
45369;BME280;51342;55.250;37.668;2023-07-20T09:14:49;98382.88;;;22.78;46.97
45369;BME280;51342;55.250;37.668;2023-07-20T09:17:25;98386.38;;;22.79;48.21
45369;BME280;51342;55.250;37.668;2023-07-20T09:19:57;98384.44;;;22.97;48.43
45369;BME280;51342;55.250;37.668;2023-07-20T09:22:30;98372.03;;;23.04;47.61
45369;BME280;51342;55.250;37.668;2023-07-20T09:25:02;98377.38;;;22.99;47.10
45369;BME280;51342;55.250;37.668;2023-07-20T09:27:38;98378.34;;;22.91;47.17
45369;BME280;51342;55.250;37.668;2023-07-20T09:30:11;98365.28;;;22.79;47.79
45369;BME280;51342;55.250;37.668;2023-07-20T09:32:47;98380.00;;;22.99;48.61
45369;BME280;51342;55.250;37.668;2023-07-20T09:35:22;98377.06;;;23.19;49.88
45369;BME280;51342;55.250;37.668;2023-07-20T09:38:03;98378.59;;;23.37;49.59
45369;BME280;51342;55.250;37.668;2023-07-20T09:40:38;98366.91;;;23.52;48.55
45369;BME280;51342;55.250;37.668;2023-07-20T09:49:17;98384.38;;;23.59;47.43
45369;BME280;51342;55.250;37.668;2023-07-20T09:51:48;98383.69;;;23.48;47.55
45369;BME280;51342;55.250;37.668;2023-07-20T09:54:21;98393.66;;;23.29;47.71
45369;BME280;51342;55.250;37.668;2023-07-20T09:56:53;98407.22;;;23.03;47.99
45369;BME280;51342;55.250;37.668;2023-07-20T09:59:25;98405.75;;;22.74;48.80
45369;BME280;51342;55.250;37.668;2023-07-20T10:01:58;98420.97;;;22.51;49.44
45369;BME280;51342;55.250;37.668;2023-07-20T10:04:34;98425.66;;;22.25;50.47
45369;BME280;51342;55.250;37.668;2023-07-20T10:07:09;98438.16;;;22.01;51.70
45369;BME280;51342;55.250;37.668;2023-07-20T10:09:43;98426.06;;;21.76;53.15
45369;BME280;51342;55.250;37.668;2023-07-20T10:12:16;98417.50;;;21.51;53.13
45369;BME280;51342;55.250;37.668;2023-07-20T10:15:23;98427.31;;;21.16;54.47
45369;BME280;51342;55.250;37.668;2023-07-20T10:18:09;98426.47;;;21.08;55.15
45369;BME280;51342;55.250;37.668;2023-07-20T10:20:41;98416.81;;;21.12;55.84
45369;BME280;51342;55.250;37.668;2023-07-20T10:23:14;98424.63;;;21.27;56.97
45369;BME280;51342;55.250;37.668;2023-07-20T10:25:46;98418.38;;;21.48;57.09
45369;BME280;51342;55.250;37.668;2023-07-20T10:28:21;98420.09;;;21.54;56.04
45369;BME280;51342;55.250;37.668;2023-07-20T10:30:54;98425.38;;;21.48;56.74
45369;BME280;51342;55.250;37.668;2023-07-20T10:33:25;98435.97;;;21.37;57.31
45369;BME280;51342;55.250;37.668;2023-07-20T10:36:01;98430.75;;;21.25;57.49
45369;BME280;51342;55.250;37.668;2023-07-20T10:38:42;98436.94;;;21.19;58.25
45369;BME280;51342;55.250;37.668;2023-07-20T10:41:29;98438.69;;;21.18;58.37
45369;BME280;51342;55.250;37.668;2023-07-20T10:44:02;98439.59;;;21.16;58.66
45369;BME280;51342;55.250;37.668;2023-07-20T10:49:13;98436.06;;;21.14;58.53
45369;BME280;51342;55.250;37.668;2023-07-20T10:51:47;98445.72;;;21.15;58.20
45369;BME280;51342;55.250;37.668;2023-07-20T10:56:51;98462.34;;;21.15;58.20
45369;BME280;51342;55.250;37.668;2023-07-20T11:01:57;98453.66;;;21.10;58.65
45369;BME280;51342;55.250;37.668;2023-07-20T11:04:52;98439.53;;;21.21;60.72
45369;BME280;51342;55.250;37.668;2023-07-20T11:07:38;98437.69;;;21.42;59.71
45369;BME280;51342;55.250;37.668;2023-07-20T11:10:13;98433.22;;;21.61;59.01
45369;BME280;51342;55.250;37.668;2023-07-20T11:13:22;98436.59;;;21.76;58.50
45369;BME280;51342;55.250;37.668;2023-07-20T11:18:28;98417.00;;;22.09;58.16
45369;BME280;51342;55.250;37.668;2023-07-20T11:21:00;98432.72;;;22.24;58.31
45369;BME280;51342;55.250;37.668;2023-07-20T11:23:31;98422.94;;;22.35;56.58
45369;BME280;51342;55.250;37.668;2023-07-20T11:26:03;98418.47;;;22.42;57.95
45369;BME280;51342;55.250;37.668;2023-07-20T11:28:35;98420.22;;;22.43;57.68
45369;BME280;51342;55.250;37.668;2023-07-20T11:31:07;98415.81;;;22.43;55.84
45369;BME280;51342;55.250;37.668;2023-07-20T11:33:38;98417.56;;;22.43;55.55
45369;BME280;51342;55.250;37.668;2023-07-20T11:36:09;98414.09;;;22.38;56.06
45369;BME280;51342;55.250;37.668;2023-07-20T11:38:41;98401.97;;;22.25;56.12
45369;BME280;51342;55.250;37.668;2023-07-20T11:41:15;98407.34;;;22.09;55.45
45369;BME280;51342;55.250;37.668;2023-07-20T13:47:36;98388.19;;;21.89;55.48
45369;BME280;51342;55.250;37.668;2023-07-20T13:50:10;98385.53;;;21.93;55.07
45369;BME280;51342;55.250;37.668;2023-07-20T13:52:45;98390.78;;;21.95;54.22
45369;BME280;51342;55.250;37.668;2023-07-20T13:55:17;98390.78;;;21.95;53.80
45369;BME280;51342;55.250;37.668;2023-07-20T13:57:50;98385.56;;;21.92;53.78
45369;BME280;51342;55.250;37.668;2023-07-20T14:00:24;98382.03;;;21.93;52.87
45369;BME280;51342;55.250;37.668;2023-07-20T14:02:58;98387.28;;;21.93;53.26
45369;BME280;51342;55.250;37.668;2023-07-20T14:05:34;98385.56;;;21.90;53.68
45369;BME280;51342;55.250;37.668;2023-07-20T14:08:06;98380.25;;;21.95;53.15
45369;BME280;51342;55.250;37.668;2023-07-20T14:10:39;98378.50;;;21.95;51.74
45369;BME280;51342;55.250;37.668;2023-07-20T14:13:12;98379.47;;;21.85;51.95
45369;BME280;51342;55.250;37.668;2023-07-20T14:15:45;98370.75;;;21.80;50.24
45369;BME280;51342;55.250;37.668;2023-07-20T14:18:18;98378.63;;;21.80;50.61
45369;BME280;51342;55.250;37.668;2023-07-20T14:20:50;98375.16;;;21.77;51.12
45369;BME280;51342;55.250;37.668;2023-07-20T14:23:22;98389.22;;;21.76;50.51
45369;BME280;51342;55.250;37.668;2023-07-20T14:25:56;98387.47;;;21.72;51.14
45369;BME280;51342;55.250;37.668;2023-07-20T14:28:28;98380.53;;;21.63;50.93
45369;BME280;51342;55.250;37.668;2023-07-20T14:31:00;98389.34;;;21.59;50.49
45369;BME280;51342;55.250;37.668;2023-07-20T14:33:34;98383.22;;;21.54;51.01
45369;BME280;51342;55.250;37.668;2023-07-20T14:36:07;98381.50;;;21.50;50.69
45369;BME280;51342;55.250;37.668;2023-07-20T14:38:40;98382.41;;;21.49;50.97
45369;BME280;51342;55.250;37.668;2023-07-20T14:41:13;98392.94;;;21.47;49.95
45369;BME280;51342;55.250;37.668;2023-07-20T14:43:46;98377.19;;;21.41;51.34
45369;BME280;51342;55.250;37.668;2023-07-20T14:46:18;98370.19;;;21.37;51.12
45369;BME280;51342;55.250;37.668;2023-07-20T14:48:51;98389.50;;;21.39;50.89
45369;BME280;51342;55.250;37.668;2023-07-20T14:51:25;98383.41;;;21.34;51.09
45369;BME280;51342;55.250;37.668;2023-07-20T14:53:56;98397.41;;;21.36;50.95
45369;BME280;51342;55.250;37.668;2023-07-20T14:56:29;98394.78;;;21.33;49.79
45369;BME280;51342;55.250;37.668;2023-07-20T14:59:03;98404.44;;;21.25;49.71
45369;BME280;51342;55.250;37.668;2023-07-20T15:01:35;98403.63;;;21.15;49.81
45369;BME280;51342;55.250;37.668;2023-07-20T15:04:10;98405.41;;;21.13;49.52
45369;BME280;51342;55.250;37.668;2023-07-20T15:17:29;98402.97;;;20.73;51.04
45369;BME280;51342;55.250;37.668;2023-07-20T15:20:05;98409.09;;;20.74;50.58
45369;BME280;51342;55.250;37.668;2023-07-20T15:22:39;98415.25;;;20.68;51.24
45369;BME280;51342;55.250;37.668;2023-07-20T15:25:12;98410.00;;;20.68;50.83
45369;BME280;51342;55.250;37.668;2023-07-20T15:27:44;98417.88;;;20.63;51.80
45369;BME280;51342;55.250;37.668;2023-07-20T15:30:18;98409.16;;;20.52;52.28
45369;BME280;51342;55.250;37.668;2023-07-20T15:32:51;98409.19;;;20.43;52.61
45369;BME280;51342;55.250;37.668;2023-07-20T15:35:27;98416.22;;;20.36;53.03
45369;BME280;51342;55.250;37.668;2023-07-20T15:38:00;98411.84;;;20.32;53.75
45369;BME280;51342;55.250;37.668;2023-07-20T15:40:33;98404.84;;;20.19;53.42
45369;BME280;51342;55.250;37.668;2023-07-20T15:43:05;98414.50;;;20.14;54.14
45369;BME280;51342;55.250;37.668;2023-07-20T15:49:20;98404.00;;;19.99;53.86
45369;BME280;51342;55.250;37.668;2023-07-20T15:51:52;98403.13;;;19.95;54.44
45369;BME280;51342;55.250;37.668;2023-07-20T15:54:23;98400.53;;;19.86;54.51
45369;BME280;51342;55.250;37.668;2023-07-20T15:56:54;98399.63;;;19.84;54.30
45369;BME280;51342;55.250;37.668;2023-07-20T15:59:26;98410.16;;;19.85;53.20
45369;BME280;51342;55.250;37.668;2023-07-20T16:01:57;98414.50;;;19.82;53.24
45369;BME280;51342;55.250;37.668;2023-07-20T16:04:29;98411.00;;;19.78;53.17
45369;BME280;51342;55.250;37.668;2023-07-20T16:07:01;98411.03;;;19.75;52.88
45369;BME280;51342;55.250;37.668;2023-07-20T16:09:33;98411.00;;;19.65;52.44